sensor_id;sensor_type;location;lat;lon;timestamp;P1;durP1;ratioP1;P2;durP2;ratioP2
72095;SDS011;59968;51.084;16.748;2022-08-03T00:00:37;6.60;;;4.50;;
72095;SDS011;59968;51.084;16.748;2022-08-03T00:03:06;6.30;;;5.00;;
72095;SDS011;59968;51.084;16.748;2022-08-03T00:05:35;4.80;;;4.10;;
72095;SDS011;59968;51.084;16.748;2022-08-03T00:08:04;6.50;;;4.80;;
72095;SDS011;59968;51.084;16.748;2022-08-03T00:10:33;7.90;;;4.80;;
72095;SDS011;59968;51.084;16.748;2022-08-03T00:13:04;5.90;;;3.70;;
72095;SDS011;59968;51.084;16.748;2022-08-03T00:15:32;5.40;;;3.70;;
72095;SDS011;59968;51.084;16.748;2022-08-03T00:18:01;6.80;;;4.10;;
72095;SDS011;59968;51.084;16.748;2022-08-03T00:20:30;4.90;;;4.00;;
72095;SDS011;59968;51.084;16.748;2022-08-03T00:22:58;5.60;;;4.60;;
72095;SDS011;59968;51.084;16.748;2022-08-03T00:25:27;7.10;;;4.30;;
72095;SDS011;59968;51.084;16.748;2022-08-03T00:27:55;6.80;;;4.30;;
72095;SDS011;59968;51.084;16.748;2022-08-03T00:30:24;7.30;;;4.30;;
72095;SDS011;59968;51.084;16.748;2022-08-03T00:32:58;6.60;;;4.50;;
72095;SDS011;59968;51.084;16.748;2022-08-03T00:35:27;6.80;;;4.10;;
72095;SDS011;59968;51.084;16.748;2022-08-03T00:38:16;5.00;;;3.60;;
72095;SDS011;59968;51.084;16.748;2022-08-03T00:40:44;5.10;;;3.60;;
72095;SDS011;59968;51.084;16.748;2022-08-03T00:43:15;6.60;;;4.40;;
72095;SDS011;59968;51.084;16.748;2022-08-03T00:45:45;5.90;;;4.70;;
72095;SDS011;59968;51.084;16.748;2022-08-03T00:48:17;7.00;;;4.40;;
72095;SDS011;59968;51.084;16.748;2022-08-03T00:51:01;8.30;;;4.50;;
72095;SDS011;59968;51.084;16.748;2022-08-03T00:53:32;6.30;;;4.50;;
72095;SDS011;59968;51.084;16.748;2022-08-03T00:56:02;6.10;;;4.80;;
72095;SDS011;59968;51.084;16.748;2022-08-03T00:58:31;6.90;;;5.20;;
72095;SDS011;59968;51.084;16.748;2022-08-03T01:00:59;6.50;;;5.00;;
72095;SDS011;59968;51.084;16.748;2022-08-03T01:03:28;6.50;;;4.10;;
72095;SDS011;59968;51.084;16.748;2022-08-03T01:15:21;7.90;;;4.60;;
72095;SDS011;59968;51.084;16.748;2022-08-03T01:17:56;7.10;;;5.30;;
72095;SDS011;59968;51.084;16.748;2022-08-03T01:20:31;6.60;;;4.80;;
72095;SDS011;59968;51.084;16.748;2022-08-03T01:31:26;8.50;;;4.80;;
72095;SDS011;59968;51.084;16.748;2022-08-03T01:34:29;6.40;;;4.40;;
72095;SDS011;59968;51.084;16.748;2022-08-03T01:37:02;6.90;;;4.50;;
72095;SDS011;59968;51.084;16.748;2022-08-03T01:39:36;6.00;;;4.50;;
72095;SDS011;59968;51.084;16.748;2022-08-03T01:42:07;7.00;;;5.10;;
72095;SDS011;59968;51.084;16.748;2022-08-03T01:44:39;7.50;;;4.50;;
72095;SDS011;59968;51.084;16.748;2022-08-03T01:47:09;6.20;;;4.70;;
72095;SDS011;59968;51.084;16.748;2022-08-03T01:49:39;7.70;;;4.20;;
72095;SDS011;59968;51.084;16.748;2022-08-03T01:52:11;6.20;;;4.70;;
72095;SDS011;59968;51.084;16.748;2022-08-03T01:54:44;6.60;;;5.00;;
72095;SDS011;59968;51.084;16.748;2022-08-03T01:57:15;6.30;;;4.50;;
72095;SDS011;59968;51.084;16.748;2022-08-03T01:59:46;7.60;;;4.80;;
72095;SDS011;59968;51.084;16.748;2022-08-03T02:02:17;7.10;;;5.20;;
72095;SDS011;59968;51.084;16.748;2022-08-03T02:05:01;7.50;;;5.00;;
72095;SDS011;59968;51.084;16.748;2022-08-03T02:07:38;6.10;;;4.40;;
72095;SDS011;59968;51.084;16.748;2022-08-03T02:10:08;6.90;;;4.30;;
72095;SDS011;59968;51.084;16.748;2022-08-03T02:12:39;8.00;;;4.80;;
72095;SDS011;59968;51.084;16.748;2022-08-03T02:15:14;6.80;;;5.10;;
72095;SDS011;59968;51.084;16.748;2022-08-03T02:17:43;7.00;;;4.70;;
72095;SDS011;59968;51.084;16.748;2022-08-03T02:20:13;6.80;;;4.10;;
72095;SDS011;59968;51.084;16.748;2022-08-03T02:22:45;6.30;;;4.80;;
72095;SDS011;59968;51.084;16.748;2022-08-03T02:25:14;6.20;;;4.30;;
72095;SDS011;59968;51.084;16.748;2022-08-03T02:27:51;6.70;;;4.30;;
72095;SDS011;59968;51.084;16.748;2022-08-03T02:30:30;6.30;;;4.60;;
72095;SDS011;59968;51.084;16.748;2022-08-03T02:33:06;6.20;;;4.50;;
72095;SDS011;59968;51.084;16.748;2022-08-03T02:35:39;5.70;;;4.80;;
72095;SDS011;59968;51.084;16.748;2022-08-03T02:38:12;6.60;;;4.70;;
72095;SDS011;59968;51.084;16.748;2022-08-03T02:40:43;7.00;;;5.30;;
72095;SDS011;59968;51.084;16.748;2022-08-03T02:43:14;6.20;;;5.00;;
72095;SDS011;59968;51.084;16.748;2022-08-03T02:45:48;7.10;;;5.40;;
72095;SDS011;59968;51.084;16.748;2022-08-03T02:48:24;6.10;;;4.70;;
72095;SDS011;59968;51.084;16.748;2022-08-03T02:51:06;8.20;;;5.00;;
72095;SDS011;59968;51.084;16.748;2022-08-03T02:53:36;6.70;;;5.40;;
72095;SDS011;59968;51.084;16.748;2022-08-03T02:56:07;8.10;;;4.90;;
72095;SDS011;59968;51.084;16.748;2022-08-03T02:58:36;8.60;;;5.70;;
72095;SDS011;59968;51.084;16.748;2022-08-03T03:01:09;7.20;;;5.10;;
72095;SDS011;59968;51.084;16.748;2022-08-03T03:03:39;7.80;;;5.80;;
72095;SDS011;59968;51.084;16.748;2022-08-03T03:06:11;7.70;;;5.00;;
72095;SDS011;59968;51.084;16.748;2022-08-03T03:08:41;7.20;;;5.10;;
72095;SDS011;59968;51.084;16.748;2022-08-03T03:11:10;7.00;;;5.20;;
72095;SDS011;59968;51.084;16.748;2022-08-03T03:13:41;8.70;;;5.20;;
72095;SDS011;59968;51.084;16.748;2022-08-03T03:16:11;6.30;;;4.80;;
72095;SDS011;59968;51.084;16.748;2022-08-03T03:18:42;8.50;;;5.50;;
72095;SDS011;59968;51.084;16.748;2022-08-03T03:21:11;6.90;;;5.50;;
72095;SDS011;59968;51.084;16.748;2022-08-03T03:23:41;9.10;;;5.30;;
72095;SDS011;59968;51.084;16.748;2022-08-03T03:26:10;7.80;;;4.90;;
72095;SDS011;59968;51.084;16.748;2022-08-03T03:28:40;6.70;;;4.70;;
72095;SDS011;59968;51.084;16.748;2022-08-03T03:31:09;9.40;;;5.20;;
72095;SDS011;59968;51.084;16.748;2022-08-03T03:33:37;7.30;;;5.20;;
72095;SDS011;59968;51.084;16.748;2022-08-03T03:36:06;7.30;;;5.10;;
72095;SDS011;59968;51.084;16.748;2022-08-03T03:38:35;7.20;;;5.40;;
72095;SDS011;59968;51.084;16.748;2022-08-03T03:41:04;6.10;;;4.80;;
72095;SDS011;59968;51.084;16.748;2022-08-03T03:43:32;13.80;;;5.40;;
72095;SDS011;59968;51.084;16.748;2022-08-03T03:46:01;7.30;;;5.20;;
72095;SDS011;59968;51.084;16.748;2022-08-03T03:48:30;7.20;;;4.90;;
72095;SDS011;59968;51.084;16.748;2022-08-03T03:50:59;8.30;;;5.30;;
72095;SDS011;59968;51.084;16.748;2022-08-03T03:53:27;8.40;;;4.60;;
72095;SDS011;59968;51.084;16.748;2022-08-03T03:55:56;7.40;;;5.40;;
72095;SDS011;59968;51.084;16.748;2022-08-03T03:58:30;6.70;;;5.30;;
72095;SDS011;59968;51.084;16.748;2022-08-03T04:00:59;7.60;;;5.40;;
72095;SDS011;59968;51.084;16.748;2022-08-03T04:03:28;9.20;;;5.70;;
72095;SDS011;59968;51.084;16.748;2022-08-03T04:05:57;8.30;;;5.10;;
72095;SDS011;59968;51.084;16.748;2022-08-03T04:08:44;9.50;;;5.70;;
72095;SDS011;59968;51.084;16.748;2022-08-03T04:11:35;7.40;;;5.90;;
72095;SDS011;59968;51.084;16.748;2022-08-03T04:14:15;8.60;;;6.10;;
72095;SDS011;59968;51.084;16.748;2022-08-03T04:16:50;7.60;;;5.10;;
72095;SDS011;59968;51.084;16.748;2022-08-03T04:19:31;6.40;;;5.10;;
72095;SDS011;59968;51.084;16.748;2022-08-03T04:22:05;8.10;;;5.20;;
72095;SDS011;59968;51.084;16.748;2022-08-03T04:24:38;9.40;;;6.10;;
72095;SDS011;59968;51.084;16.748;2022-08-03T04:27:10;8.30;;;6.00;;
72095;SDS011;59968;51.084;16.748;2022-08-03T04:29:43;8.80;;;5.50;;
72095;SDS011;59968;51.084;16.748;2022-08-03T04:32:15;6.80;;;5.20;;
72095;SDS011;59968;51.084;16.748;2022-08-03T04:34:45;8.00;;;5.50;;
72095;SDS011;59968;51.084;16.748;2022-08-03T04:37:18;8.40;;;5.90;;
72095;SDS011;59968;51.084;16.748;2022-08-03T04:39:53;7.80;;;5.50;;
72095;SDS011;59968;51.084;16.748;2022-08-03T04:42:26;8.90;;;6.00;;
72095;SDS011;59968;51.084;16.748;2022-08-03T04:44:59;9.50;;;6.20;;
72095;SDS011;59968;51.084;16.748;2022-08-03T04:47:31;9.90;;;6.30;;
72095;SDS011;59968;51.084;16.748;2022-08-03T04:50:01;9.80;;;6.20;;
72095;SDS011;59968;51.084;16.748;2022-08-03T04:52:37;7.70;;;6.00;;
72095;SDS011;59968;51.084;16.748;2022-08-03T04:55:06;8.70;;;6.40;;
72095;SDS011;59968;51.084;16.748;2022-08-03T04:57:35;7.40;;;5.50;;
72095;SDS011;59968;51.084;16.748;2022-08-03T05:00:03;9.30;;;5.90;;
72095;SDS011;59968;51.084;16.748;2022-08-03T05:02:33;9.30;;;5.80;;
72095;SDS011;59968;51.084;16.748;2022-08-03T05:05:01;7.20;;;5.60;;
72095;SDS011;59968;51.084;16.748;2022-08-03T05:07:30;9.50;;;6.50;;
72095;SDS011;59968;51.084;16.748;2022-08-03T05:10:04;10.20;;;6.30;;
72095;SDS011;59968;51.084;16.748;2022-08-03T05:12:44;10.00;;;6.60;;
72095;SDS011;59968;51.084;16.748;2022-08-03T05:15:15;11.40;;;6.00;;
72095;SDS011;59968;51.084;16.748;2022-08-03T05:17:43;8.50;;;5.50;;
72095;SDS011;59968;51.084;16.748;2022-08-03T05:20:12;8.40;;;5.40;;
72095;SDS011;59968;51.084;16.748;2022-08-03T05:22:44;8.20;;;5.40;;
72095;SDS011;59968;51.084;16.748;2022-08-03T05:25:15;8.60;;;5.00;;
72095;SDS011;59968;51.084;16.748;2022-08-03T05:27:48;8.50;;;5.40;;
72095;SDS011;59968;51.084;16.748;2022-08-03T05:30:16;6.80;;;5.50;;
72095;SDS011;59968;51.084;16.748;2022-08-03T05:33:01;8.00;;;5.80;;
72095;SDS011;59968;51.084;16.748;2022-08-03T05:35:30;7.50;;;5.60;;
72095;SDS011;59968;51.084;16.748;2022-08-03T05:38:21;7.40;;;4.90;;
72095;SDS011;59968;51.084;16.748;2022-08-03T05:41:01;6.90;;;5.20;;
72095;SDS011;59968;51.084;16.748;2022-08-03T05:43:51;6.40;;;5.10;;
72095;SDS011;59968;51.084;16.748;2022-08-03T05:46:21;6.80;;;4.90;;
72095;SDS011;59968;51.084;16.748;2022-08-03T05:48:50;6.90;;;5.10;;
72095;SDS011;59968;51.084;16.748;2022-08-03T05:51:19;7.00;;;5.00;;
72095;SDS011;59968;51.084;16.748;2022-08-03T05:53:47;8.00;;;5.30;;
72095;SDS011;59968;51.084;16.748;2022-08-03T05:56:15;9.80;;;5.40;;
72095;SDS011;59968;51.084;16.748;2022-08-03T05:58:44;7.30;;;5.10;;
72095;SDS011;59968;51.084;16.748;2022-08-03T06:01:15;6.90;;;5.40;;
72095;SDS011;59968;51.084;16.748;2022-08-03T06:03:44;8.20;;;5.00;;
72095;SDS011;59968;51.084;16.748;2022-08-03T06:06:13;8.20;;;4.90;;
72095;SDS011;59968;51.084;16.748;2022-08-03T06:08:43;6.80;;;4.50;;
72095;SDS011;59968;51.084;16.748;2022-08-03T06:11:12;6.10;;;4.70;;
72095;SDS011;59968;51.084;16.748;2022-08-03T06:13:41;5.40;;;4.40;;
72095;SDS011;59968;51.084;16.748;2022-08-03T06:16:10;6.50;;;4.50;;
72095;SDS011;59968;51.084;16.748;2022-08-03T06:18:39;6.60;;;4.40;;
72095;SDS011;59968;51.084;16.748;2022-08-03T06:21:08;7.80;;;4.90;;
72095;SDS011;59968;51.084;16.748;2022-08-03T06:23:43;6.20;;;4.70;;
72095;SDS011;59968;51.084;16.748;2022-08-03T06:26:25;7.40;;;4.40;;
72095;SDS011;59968;51.084;16.748;2022-08-03T06:28:55;6.50;;;4.30;;
72095;SDS011;59968;51.084;16.748;2022-08-03T06:31:24;6.00;;;4.40;;
72095;SDS011;59968;51.084;16.748;2022-08-03T06:34:03;5.70;;;4.30;;
72095;SDS011;59968;51.084;16.748;2022-08-03T06:36:53;5.30;;;4.30;;
72095;SDS011;59968;51.084;16.748;2022-08-03T06:39:28;7.40;;;4.50;;
72095;SDS011;59968;51.084;16.748;2022-08-03T06:41:57;9.30;;;4.30;;
72095;SDS011;59968;51.084;16.748;2022-08-03T06:44:26;5.70;;;4.20;;
72095;SDS011;59968;51.084;16.748;2022-08-03T06:46:54;5.70;;;4.60;;
72095;SDS011;59968;51.084;16.748;2022-08-03T06:49:23;8.80;;;4.30;;
72095;SDS011;59968;51.084;16.748;2022-08-03T06:51:52;8.50;;;4.80;;
72095;SDS011;59968;51.084;16.748;2022-08-03T06:54:33;6.80;;;4.30;;
72095;SDS011;59968;51.084;16.748;2022-08-03T06:57:03;5.70;;;4.40;;
72095;SDS011;59968;51.084;16.748;2022-08-03T06:59:32;4.90;;;4.00;;
72095;SDS011;59968;51.084;16.748;2022-08-03T07:02:21;5.20;;;4.20;;
72095;SDS011;59968;51.084;16.748;2022-08-03T07:04:50;5.40;;;4.40;;
72095;SDS011;59968;51.084;16.748;2022-08-03T07:07:19;4.70;;;3.80;;
72095;SDS011;59968;51.084;16.748;2022-08-03T07:09:48;5.60;;;4.10;;
72095;SDS011;59968;51.084;16.748;2022-08-03T07:12:25;5.20;;;3.90;;
72095;SDS011;59968;51.084;16.748;2022-08-03T07:14:55;5.20;;;4.00;;
72095;SDS011;59968;51.084;16.748;2022-08-03T07:17:29;7.40;;;3.90;;
72095;SDS011;59968;51.084;16.748;2022-08-03T07:20:03;5.00;;;3.50;;
72095;SDS011;59968;51.084;16.748;2022-08-03T07:22:33;5.50;;;3.90;;
72095;SDS011;59968;51.084;16.748;2022-08-03T07:25:03;4.80;;;3.70;;
72095;SDS011;59968;51.084;16.748;2022-08-03T07:27:32;6.20;;;3.50;;
72095;SDS011;59968;51.084;16.748;2022-08-03T07:30:01;6.00;;;3.90;;
72095;SDS011;59968;51.084;16.748;2022-08-03T07:32:34;4.60;;;4.10;;
72095;SDS011;59968;51.084;16.748;2022-08-03T07:35:17;4.10;;;3.70;;
72095;SDS011;59968;51.084;16.748;2022-08-03T07:37:52;4.70;;;3.10;;
72095;SDS011;59968;51.084;16.748;2022-08-03T07:40:35;5.80;;;4.00;;
72095;SDS011;59968;51.084;16.748;2022-08-03T07:43:04;6.30;;;3.70;;
72095;SDS011;59968;51.084;16.748;2022-08-03T07:45:34;5.10;;;3.50;;
72095;SDS011;59968;51.084;16.748;2022-08-03T07:48:07;3.90;;;3.40;;
72095;SDS011;59968;51.084;16.748;2022-08-03T07:50:39;3.80;;;3.40;;
72095;SDS011;59968;51.084;16.748;2022-08-03T07:53:08;4.70;;;3.50;;
72095;SDS011;59968;51.084;16.748;2022-08-03T07:55:41;5.20;;;3.40;;
72095;SDS011;59968;51.084;16.748;2022-08-03T07:58:10;5.10;;;3.60;;
72095;SDS011;59968;51.084;16.748;2022-08-03T08:00:49;3.50;;;3.20;;
72095;SDS011;59968;51.084;16.748;2022-08-03T08:03:20;4.40;;;3.00;;
72095;SDS011;59968;51.084;16.748;2022-08-03T08:05:51;5.10;;;3.60;;
72095;SDS011;59968;51.084;16.748;2022-08-03T08:08:21;4.30;;;3.40;;
72095;SDS011;59968;51.084;16.748;2022-08-03T08:10:54;4.50;;;3.40;;
72095;SDS011;59968;51.084;16.748;2022-08-03T08:13:25;6.20;;;3.30;;
72095;SDS011;59968;51.084;16.748;2022-08-03T08:15:54;4.70;;;3.80;;
72095;SDS011;59968;51.084;16.748;2022-08-03T08:18:22;4.40;;;3.70;;
72095;SDS011;59968;51.084;16.748;2022-08-03T08:20:58;3.80;;;3.40;;
72095;SDS011;59968;51.084;16.748;2022-08-03T08:23:29;6.80;;;3.70;;
72095;SDS011;59968;51.084;16.748;2022-08-03T08:26:11;7.40;;;3.60;;
72095;SDS011;59968;51.084;16.748;2022-08-03T08:28:40;5.10;;;3.30;;
72095;SDS011;59968;51.084;16.748;2022-08-03T08:31:09;3.80;;;3.40;;
72095;SDS011;59968;51.084;16.748;2022-08-03T08:33:37;7.80;;;3.40;;
72095;SDS011;59968;51.084;16.748;2022-08-03T08:36:26;15.70;;;3.90;;
72095;SDS011;59968;51.084;16.748;2022-08-03T08:38:55;3.70;;;3.30;;
72095;SDS011;59968;51.084;16.748;2022-08-03T08:41:23;3.40;;;3.10;;
72095;SDS011;59968;51.084;16.748;2022-08-03T08:43:59;4.10;;;3.80;;
72095;SDS011;59968;51.084;16.748;2022-08-03T08:46:31;4.10;;;3.50;;
72095;SDS011;59968;51.084;16.748;2022-08-03T08:49:00;7.10;;;3.70;;
72095;SDS011;59968;51.084;16.748;2022-08-03T08:51:32;3.70;;;3.40;;
72095;SDS011;59968;51.084;16.748;2022-08-03T08:54:26;3.70;;;3.20;;
72095;SDS011;59968;51.084;16.748;2022-08-03T08:56:57;4.00;;;3.20;;
72095;SDS011;59968;51.084;16.748;2022-08-03T08:59:51;3.60;;;3.30;;
72095;SDS011;59968;51.084;16.748;2022-08-03T09:02:24;3.60;;;3.10;;
72095;SDS011;59968;51.084;16.748;2022-08-03T09:04:56;3.90;;;3.30;;
72095;SDS011;59968;51.084;16.748;2022-08-03T09:07:30;4.40;;;3.50;;
72095;SDS011;59968;51.084;16.748;2022-08-03T09:09:59;4.10;;;3.10;;
72095;SDS011;59968;51.084;16.748;2022-08-03T09:12:44;3.70;;;3.40;;
72095;SDS011;59968;51.084;16.748;2022-08-03T09:17:57;3.60;;;3.20;;
72095;SDS011;59968;51.084;16.748;2022-08-03T09:20:31;4.90;;;3.50;;
72095;SDS011;59968;51.084;16.748;2022-08-03T09:25:51;4.40;;;4.00;;
72095;SDS011;59968;51.084;16.748;2022-08-03T09:28:32;4.90;;;3.40;;
72095;SDS011;59968;51.084;16.748;2022-08-03T09:31:28;3.80;;;3.30;;
72095;SDS011;59968;51.084;16.748;2022-08-03T09:34:05;3.70;;;3.30;;
72095;SDS011;59968;51.084;16.748;2022-08-03T09:39:11;4.60;;;3.60;;
72095;SDS011;59968;51.084;16.748;2022-08-03T09:41:42;6.00;;;3.40;;
72095;SDS011;59968;51.084;16.748;2022-08-03T09:44:12;3.40;;;3.10;;
72095;SDS011;59968;51.084;16.748;2022-08-03T09:46:53;4.90;;;3.30;;
72095;SDS011;59968;51.084;16.748;2022-08-03T09:49:25;3.90;;;3.20;;
72095;SDS011;59968;51.084;16.748;2022-08-03T09:51:54;4.20;;;3.70;;
72095;SDS011;59968;51.084;16.748;2022-08-03T09:54:43;4.60;;;3.10;;
72095;SDS011;59968;51.084;16.748;2022-08-03T09:57:19;4.70;;;3.50;;
72095;SDS011;59968;51.084;16.748;2022-08-03T09:59:51;3.40;;;3.10;;
72095;SDS011;59968;51.084;16.748;2022-08-03T10:02:39;4.00;;;3.30;;
72095;SDS011;59968;51.084;16.748;2022-08-03T10:05:10;3.90;;;3.10;;
72095;SDS011;59968;51.084;16.748;2022-08-03T10:07:48;4.40;;;3.40;;
72095;SDS011;59968;51.084;16.748;2022-08-03T10:10:18;5.50;;;3.60;;
72095;SDS011;59968;51.084;16.748;2022-08-03T10:12:59;4.60;;;3.30;;
72095;SDS011;59968;51.084;16.748;2022-08-03T10:15:28;4.10;;;3.70;;
72095;SDS011;59968;51.084;16.748;2022-08-03T10:18:16;3.60;;;3.30;;
72095;SDS011;59968;51.084;16.748;2022-08-03T10:20:49;4.40;;;3.80;;
72095;SDS011;59968;51.084;16.748;2022-08-03T10:23:21;5.00;;;3.90;;
72095;SDS011;59968;51.084;16.748;2022-08-03T10:25:51;5.50;;;4.10;;
72095;SDS011;59968;51.084;16.748;2022-08-03T10:28:25;4.40;;;3.70;;
72095;SDS011;59968;51.084;16.748;2022-08-03T10:31:01;3.90;;;3.50;;
72095;SDS011;59968;51.084;16.748;2022-08-03T10:33:36;3.70;;;3.40;;
72095;SDS011;59968;51.084;16.748;2022-08-03T10:36:21;19.00;;;3.60;;
72095;SDS011;59968;51.084;16.748;2022-08-03T10:38:51;6.80;;;3.40;;
72095;SDS011;59968;51.084;16.748;2022-08-03T10:41:22;6.30;;;2.90;;
72095;SDS011;59968;51.084;16.748;2022-08-03T10:43:57;3.70;;;3.00;;
72095;SDS011;59968;51.084;16.748;2022-08-03T10:46:31;3.70;;;3.30;;
72095;SDS011;59968;51.084;16.748;2022-08-03T10:49:01;4.50;;;3.50;;
72095;SDS011;59968;51.084;16.748;2022-08-03T10:51:31;4.00;;;3.50;;
72095;SDS011;59968;51.084;16.748;2022-08-03T10:53:59;3.50;;;3.20;;
72095;SDS011;59968;51.084;16.748;2022-08-03T10:59:55;3.40;;;3.10;;
72095;SDS011;59968;51.084;16.748;2022-08-03T11:02:18;3.90;;;3.10;;
72095;SDS011;59968;51.084;16.748;2022-08-03T11:04:46;3.40;;;3.10;;
72095;SDS011;59968;51.084;16.748;2022-08-03T11:14:01;3.70;;;3.40;;
72095;SDS011;59968;51.084;16.748;2022-08-03T11:16:48;3.80;;;3.40;;
72095;SDS011;59968;51.084;16.748;2022-08-03T11:19:19;3.60;;;3.10;;
72095;SDS011;59968;51.084;16.748;2022-08-03T11:21:55;4.00;;;3.40;;
72095;SDS011;59968;51.084;16.748;2022-08-03T11:35:17;3.70;;;3.00;;
72095;SDS011;59968;51.084;16.748;2022-08-03T11:43:00;3.20;;;2.90;;
72095;SDS011;59968;51.084;16.748;2022-08-03T11:45:31;3.70;;;3.10;;
72095;SDS011;59968;51.084;16.748;2022-08-03T11:48:02;5.40;;;3.10;;
72095;SDS011;59968;51.084;16.748;2022-08-03T11:50:41;3.20;;;2.70;;
72095;SDS011;59968;51.084;16.748;2022-08-03T11:53:13;4.80;;;3.00;;
72095;SDS011;59968;51.084;16.748;2022-08-03T11:55:44;3.30;;;2.70;;
72095;SDS011;59968;51.084;16.748;2022-08-03T11:58:19;3.20;;;2.70;;
72095;SDS011;59968;51.084;16.748;2022-08-03T12:01:08;3.10;;;2.80;;
72095;SDS011;59968;51.084;16.748;2022-08-03T12:03:39;23.30;;;4.10;;
72095;SDS011;59968;51.084;16.748;2022-08-03T12:06:09;3.10;;;2.90;;
72095;SDS011;59968;51.084;16.748;2022-08-03T12:08:39;3.40;;;3.10;;
72095;SDS011;59968;51.084;16.748;2022-08-03T12:11:09;3.40;;;3.10;;
72095;SDS011;59968;51.084;16.748;2022-08-03T12:16:36;2.80;;;2.60;;
72095;SDS011;59968;51.084;16.748;2022-08-03T12:19:05;3.10;;;2.80;;
72095;SDS011;59968;51.084;16.748;2022-08-03T12:21:33;4.40;;;2.90;;
72095;SDS011;59968;51.084;16.748;2022-08-03T12:24:03;3.00;;;2.80;;
72095;SDS011;59968;51.084;16.748;2022-08-03T12:26:42;3.20;;;2.80;;
72095;SDS011;59968;51.084;16.748;2022-08-03T12:29:26;3.80;;;3.40;;
72095;SDS011;59968;51.084;16.748;2022-08-03T12:31:55;5.10;;;3.00;;
72095;SDS011;59968;51.084;16.748;2022-08-03T12:34:24;3.50;;;3.20;;
72095;SDS011;59968;51.084;16.748;2022-08-03T12:37:21;3.60;;;3.30;;
72095;SDS011;59968;51.084;16.748;2022-08-03T12:39:51;3.20;;;2.80;;
72095;SDS011;59968;51.084;16.748;2022-08-03T12:42:33;3.00;;;2.80;;
72095;SDS011;59968;51.084;16.748;2022-08-03T12:45:22;3.60;;;2.60;;
72095;SDS011;59968;51.084;16.748;2022-08-03T12:47:55;10.70;;;3.10;;
72095;SDS011;59968;51.084;16.748;2022-08-03T12:50:30;4.10;;;3.00;;
72095;SDS011;59968;51.084;16.748;2022-08-03T12:53:04;3.30;;;3.10;;
72095;SDS011;59968;51.084;16.748;2022-08-03T12:55:36;3.40;;;2.70;;
72095;SDS011;59968;51.084;16.748;2022-08-03T12:58:33;3.80;;;3.40;;
72095;SDS011;59968;51.084;16.748;2022-08-03T13:01:03;3.20;;;2.90;;
72095;SDS011;59968;51.084;16.748;2022-08-03T13:03:40;3.20;;;2.40;;
72095;SDS011;59968;51.084;16.748;2022-08-03T13:06:18;3.10;;;2.80;;
72095;SDS011;59968;51.084;16.748;2022-08-03T13:09:10;4.70;;;2.80;;
72095;SDS011;59968;51.084;16.748;2022-08-03T13:11:39;3.40;;;3.10;;
72095;SDS011;59968;51.084;16.748;2022-08-03T13:14:29;4.00;;;3.40;;
72095;SDS011;59968;51.084;16.748;2022-08-03T13:16:59;3.50;;;3.20;;
72095;SDS011;59968;51.084;16.748;2022-08-03T13:19:34;3.80;;;3.40;;
72095;SDS011;59968;51.084;16.748;2022-08-03T13:22:14;3.90;;;3.00;;
72095;SDS011;59968;51.084;16.748;2022-08-03T13:24:47;3.20;;;2.90;;
72095;SDS011;59968;51.084;16.748;2022-08-03T13:27:18;3.10;;;2.80;;
72095;SDS011;59968;51.084;16.748;2022-08-03T13:30:09;3.80;;;3.40;;
72095;SDS011;59968;51.084;16.748;2022-08-03T13:32:39;3.80;;;3.10;;
72095;SDS011;59968;51.084;16.748;2022-08-03T13:35:10;4.00;;;2.70;;
72095;SDS011;59968;51.084;16.748;2022-08-03T13:37:44;4.10;;;3.00;;
72095;SDS011;59968;51.084;16.748;2022-08-03T13:40:16;3.60;;;3.00;;
72095;SDS011;59968;51.084;16.748;2022-08-03T13:42:45;3.10;;;2.80;;
72095;SDS011;59968;51.084;16.748;2022-08-03T13:45:13;4.40;;;2.80;;
72095;SDS011;59968;51.084;16.748;2022-08-03T13:47:43;3.20;;;2.90;;
72095;SDS011;59968;51.084;16.748;2022-08-03T13:50:12;4.60;;;3.00;;
72095;SDS011;59968;51.084;16.748;2022-08-03T13:52:41;3.80;;;3.30;;
72095;SDS011;59968;51.084;16.748;2022-08-03T13:55:10;3.10;;;2.90;;
72095;SDS011;59968;51.084;16.748;2022-08-03T13:57:39;3.60;;;3.30;;
72095;SDS011;59968;51.084;16.748;2022-08-03T14:00:29;3.70;;;3.00;;
72095;SDS011;59968;51.084;16.748;2022-08-03T14:02:59;3.40;;;3.00;;
72095;SDS011;59968;51.084;16.748;2022-08-03T14:05:39;3.80;;;3.50;;
72095;SDS011;59968;51.084;16.748;2022-08-03T14:08:09;3.30;;;2.90;;
72095;SDS011;59968;51.084;16.748;2022-08-03T14:10:40;3.10;;;2.80;;
72095;SDS011;59968;51.084;16.748;2022-08-03T14:13:13;3.60;;;3.30;;
72095;SDS011;59968;51.084;16.748;2022-08-03T14:15:45;4.10;;;3.20;;
72095;SDS011;59968;51.084;16.748;2022-08-03T14:18:18;3.30;;;3.00;;
72095;SDS011;59968;51.084;16.748;2022-08-03T14:21:01;9.30;;;3.30;;
72095;SDS011;59968;51.084;16.748;2022-08-03T14:23:34;4.00;;;3.50;;
72095;SDS011;59968;51.084;16.748;2022-08-03T14:26:10;3.70;;;3.20;;
72095;SDS011;59968;51.084;16.748;2022-08-03T14:28:39;3.50;;;3.20;;
72095;SDS011;59968;51.084;16.748;2022-08-03T14:31:07;3.80;;;3.10;;
72095;SDS011;59968;51.084;16.748;2022-08-03T14:33:58;3.00;;;2.80;;
72095;SDS011;59968;51.084;16.748;2022-08-03T14:36:27;5.10;;;3.10;;
72095;SDS011;59968;51.084;16.748;2022-08-03T14:38:55;3.80;;;3.40;;
72095;SDS011;59968;51.084;16.748;2022-08-03T14:41:28;3.10;;;2.90;;
72095;SDS011;59968;51.084;16.748;2022-08-03T14:43:57;3.10;;;2.80;;
72095;SDS011;59968;51.084;16.748;2022-08-03T14:46:30;3.40;;;3.10;;
72095;SDS011;59968;51.084;16.748;2022-08-03T14:49:02;4.20;;;2.90;;
72095;SDS011;59968;51.084;16.748;2022-08-03T14:51:53;3.00;;;2.70;;
72095;SDS011;59968;51.084;16.748;2022-08-03T14:54:25;3.40;;;3.10;;
72095;SDS011;59968;51.084;16.748;2022-08-03T14:56:54;3.10;;;2.80;;
72095;SDS011;59968;51.084;16.748;2022-08-03T14:59:31;3.40;;;3.00;;
72095;SDS011;59968;51.084;16.748;2022-08-03T15:02:23;6.00;;;4.10;;
72095;SDS011;59968;51.084;16.748;2022-08-03T15:04:52;3.40;;;3.10;;
72095;SDS011;59968;51.084;16.748;2022-08-03T15:07:21;3.30;;;3.00;;
72095;SDS011;59968;51.084;16.748;2022-08-03T15:09:51;5.80;;;3.10;;
72095;SDS011;59968;51.084;16.748;2022-08-03T15:12:20;5.80;;;4.10;;
72095;SDS011;59968;51.084;16.748;2022-08-03T15:14:49;13.50;;;4.50;;
72095;SDS011;59968;51.084;16.748;2022-08-03T15:17:18;3.60;;;3.10;;
72095;SDS011;59968;51.084;16.748;2022-08-03T15:19:47;3.60;;;3.30;;
72095;SDS011;59968;51.084;16.748;2022-08-03T15:22:38;3.20;;;2.70;;
72095;SDS011;59968;51.084;16.748;2022-08-03T15:25:07;8.00;;;3.10;;
72095;SDS011;59968;51.084;16.748;2022-08-03T15:27:56;4.00;;;3.60;;
72095;SDS011;59968;51.084;16.748;2022-08-03T15:30:31;3.70;;;3.20;;
72095;SDS011;59968;51.084;16.748;2022-08-03T15:33:03;3.40;;;2.90;;
72095;SDS011;59968;51.084;16.748;2022-08-03T15:35:32;3.60;;;3.20;;
72095;SDS011;59968;51.084;16.748;2022-08-03T15:38:01;4.80;;;3.50;;
72095;SDS011;59968;51.084;16.748;2022-08-03T15:40:36;3.00;;;2.80;;
72095;SDS011;59968;51.084;16.748;2022-08-03T15:43:05;3.90;;;3.40;;
72095;SDS011;59968;51.084;16.748;2022-08-03T15:45:34;7.00;;;3.80;;
72095;SDS011;59968;51.084;16.748;2022-08-03T15:48:04;7.20;;;3.40;;
72095;SDS011;59968;51.084;16.748;2022-08-03T15:50:33;5.40;;;3.20;;
72095;SDS011;59968;51.084;16.748;2022-08-03T15:53:02;10.00;;;3.40;;
72095;SDS011;59968;51.084;16.748;2022-08-03T15:55:31;4.70;;;3.10;;
72095;SDS011;59968;51.084;16.748;2022-08-03T15:58:02;6.50;;;3.10;;
72095;SDS011;59968;51.084;16.748;2022-08-03T16:00:52;7.40;;;3.00;;
72095;SDS011;59968;51.084;16.748;2022-08-03T16:03:20;11.30;;;3.90;;